sensor_id;sensor_type;location;lat;lon;timestamp;P1;durP1;ratioP1;P2;durP2;ratioP2
74995;SDS011;63545;51.690;5.202;2023-04-15T00:01:27;13.80;;;5.10;;
74995;SDS011;63545;51.690;5.202;2023-04-15T00:03:53;15.20;;;4.93;;
74995;SDS011;63545;51.690;5.202;2023-04-15T00:06:19;13.65;;;4.55;;
74995;SDS011;63545;51.690;5.202;2023-04-15T00:08:45;11.55;;;5.15;;
74995;SDS011;63545;51.690;5.202;2023-04-15T00:11:11;12.68;;;5.05;;
74995;SDS011;63545;51.690;5.202;2023-04-15T00:13:37;9.60;;;4.17;;
74995;SDS011;63545;51.690;5.202;2023-04-15T00:16:03;8.52;;;4.53;;
74995;SDS011;63545;51.690;5.202;2023-04-15T00:18:30;9.45;;;4.95;;
74995;SDS011;63545;51.690;5.202;2023-04-15T00:20:56;10.80;;;5.07;;
74995;SDS011;63545;51.690;5.202;2023-04-15T00:23:21;13.52;;;5.10;;
74995;SDS011;63545;51.690;5.202;2023-04-15T00:25:46;13.77;;;4.80;;
74995;SDS011;63545;51.690;5.202;2023-04-15T00:28:12;7.80;;;4.60;;
74995;SDS011;63545;51.690;5.202;2023-04-15T00:30:37;9.70;;;5.00;;
74995;SDS011;63545;51.690;5.202;2023-04-15T00:33:03;9.27;;;4.70;;
74995;SDS011;63545;51.690;5.202;2023-04-15T00:35:28;10.77;;;4.87;;
74995;SDS011;63545;51.690;5.202;2023-04-15T00:37:56;9.55;;;4.90;;
74995;SDS011;63545;51.690;5.202;2023-04-15T00:40:22;8.60;;;4.53;;
74995;SDS011;63545;51.690;5.202;2023-04-15T00:42:48;11.70;;;5.05;;
74995;SDS011;63545;51.690;5.202;2023-04-15T00:45:14;18.57;;;5.10;;
74995;SDS011;63545;51.690;5.202;2023-04-15T00:47:42;8.52;;;4.90;;
74995;SDS011;63545;51.690;5.202;2023-04-15T00:50:09;10.50;;;5.10;;
74995;SDS011;63545;51.690;5.202;2023-04-15T00:52:35;13.90;;;5.43;;
74995;SDS011;63545;51.690;5.202;2023-04-15T00:55:01;11.20;;;5.05;;
74995;SDS011;63545;51.690;5.202;2023-04-15T00:57:28;10.90;;;4.80;;
74995;SDS011;63545;51.690;5.202;2023-04-15T00:59:54;11.03;;;5.20;;
74995;SDS011;63545;51.690;5.202;2023-04-15T01:02:20;11.63;;;5.75;;
74995;SDS011;63545;51.690;5.202;2023-04-15T01:04:46;10.27;;;5.25;;
74995;SDS011;63545;51.690;5.202;2023-04-15T01:07:12;8.63;;;5.63;;
74995;SDS011;63545;51.690;5.202;2023-04-15T01:09:37;11.00;;;5.63;;
74995;SDS011;63545;51.690;5.202;2023-04-15T01:12:03;14.40;;;5.73;;
74995;SDS011;63545;51.690;5.202;2023-04-15T01:14:29;11.80;;;5.67;;
74995;SDS011;63545;51.690;5.202;2023-04-15T01:16:54;12.27;;;6.32;;
74995;SDS011;63545;51.690;5.202;2023-04-15T01:19:20;12.77;;;5.93;;
74995;SDS011;63545;51.690;5.202;2023-04-15T01:21:46;9.68;;;5.88;;
74995;SDS011;63545;51.690;5.202;2023-04-15T01:24:11;11.60;;;6.57;;
74995;SDS011;63545;51.690;5.202;2023-04-15T01:26:37;10.68;;;6.15;;
74995;SDS011;63545;51.690;5.202;2023-04-15T01:29:03;13.77;;;6.40;;
74995;SDS011;63545;51.690;5.202;2023-04-15T01:31:29;10.63;;;6.45;;
74995;SDS011;63545;51.690;5.202;2023-04-15T01:33:54;10.83;;;6.20;;
74995;SDS011;63545;51.690;5.202;2023-04-15T01:36:19;13.70;;;6.33;;
74995;SDS011;63545;51.690;5.202;2023-04-15T01:38:48;11.07;;;6.17;;
74995;SDS011;63545;51.690;5.202;2023-04-15T01:41:13;11.05;;;6.40;;
74995;SDS011;63545;51.690;5.202;2023-04-15T01:43:39;11.17;;;6.20;;
74995;SDS011;63545;51.690;5.202;2023-04-15T01:46:04;12.43;;;6.57;;
74995;SDS011;63545;51.690;5.202;2023-04-15T01:48:30;11.17;;;6.80;;
74995;SDS011;63545;51.690;5.202;2023-04-15T01:50:57;12.55;;;6.57;;
74995;SDS011;63545;51.690;5.202;2023-04-15T01:53:23;13.02;;;6.80;;
74995;SDS011;63545;51.690;5.202;2023-04-15T01:55:49;9.40;;;6.03;;
74995;SDS011;63545;51.690;5.202;2023-04-15T01:58:15;11.93;;;6.43;;
74995;SDS011;63545;51.690;5.202;2023-04-15T02:00:41;15.50;;;6.80;;
74995;SDS011;63545;51.690;5.202;2023-04-15T02:03:06;13.70;;;6.60;;
74995;SDS011;63545;51.690;5.202;2023-04-15T02:05:32;10.07;;;5.87;;
74995;SDS011;63545;51.690;5.202;2023-04-15T02:07:57;16.35;;;6.78;;
74995;SDS011;63545;51.690;5.202;2023-04-15T02:10:23;12.97;;;6.83;;
74995;SDS011;63545;51.690;5.202;2023-04-15T02:12:48;12.03;;;6.27;;
74995;SDS011;63545;51.690;5.202;2023-04-15T02:15:14;13.83;;;6.47;;
74995;SDS011;63545;51.690;5.202;2023-04-15T02:17:39;12.15;;;6.82;;
74995;SDS011;63545;51.690;5.202;2023-04-15T02:20:05;15.20;;;6.73;;
74995;SDS011;63545;51.690;5.202;2023-04-15T02:22:31;13.55;;;7.18;;
74995;SDS011;63545;51.690;5.202;2023-04-15T02:24:56;13.17;;;6.97;;
74995;SDS011;63545;51.690;5.202;2023-04-15T02:27:21;11.53;;;6.63;;
74995;SDS011;63545;51.690;5.202;2023-04-15T02:29:47;11.63;;;7.30;;
74995;SDS011;63545;51.690;5.202;2023-04-15T02:32:14;10.55;;;6.50;;
74995;SDS011;63545;51.690;5.202;2023-04-15T02:34:40;11.30;;;7.03;;
74995;SDS011;63545;51.690;5.202;2023-04-15T02:37:07;11.55;;;7.45;;
74995;SDS011;63545;51.690;5.202;2023-04-15T02:39:33;11.23;;;7.13;;
74995;SDS011;63545;51.690;5.202;2023-04-15T02:41:58;13.87;;;7.00;;
74995;SDS011;63545;51.690;5.202;2023-04-15T02:44:25;13.82;;;7.78;;
74995;SDS011;63545;51.690;5.202;2023-04-15T02:46:51;12.65;;;7.43;;
74995;SDS011;63545;51.690;5.202;2023-04-15T02:49:18;14.93;;;7.80;;
74995;SDS011;63545;51.690;5.202;2023-04-15T02:51:46;15.73;;;7.65;;
74995;SDS011;63545;51.690;5.202;2023-04-15T02:54:14;14.95;;;8.27;;
74995;SDS011;63545;51.690;5.202;2023-04-15T02:56:41;12.25;;;7.32;;
74995;SDS011;63545;51.690;5.202;2023-04-15T02:59:06;13.67;;;8.30;;
74995;SDS011;63545;51.690;5.202;2023-04-15T03:01:31;15.30;;;8.63;;
74995;SDS011;63545;51.690;5.202;2023-04-15T03:03:57;14.53;;;8.40;;
74995;SDS011;63545;51.690;5.202;2023-04-15T03:06:22;14.07;;;8.50;;
74995;SDS011;63545;51.690;5.202;2023-04-15T03:08:48;11.55;;;7.72;;
74995;SDS011;63545;51.690;5.202;2023-04-15T03:11:14;14.88;;;7.97;;
74995;SDS011;63545;51.690;5.202;2023-04-15T03:13:40;12.43;;;7.90;;
74995;SDS011;63545;51.690;5.202;2023-04-15T03:16:07;16.85;;;8.35;;
74995;SDS011;63545;51.690;5.202;2023-04-15T03:18:32;15.98;;;8.73;;
74995;SDS011;63545;51.690;5.202;2023-04-15T03:20:58;13.83;;;8.70;;
74995;SDS011;63545;51.690;5.202;2023-04-15T03:23:23;13.87;;;8.43;;
74995;SDS011;63545;51.690;5.202;2023-04-15T03:25:49;13.48;;;8.68;;
74995;SDS011;63545;51.690;5.202;2023-04-15T03:28:15;10.80;;;7.90;;
74995;SDS011;63545;51.690;5.202;2023-04-15T03:30:40;15.00;;;8.77;;
74995;SDS011;63545;51.690;5.202;2023-04-15T03:33:06;14.68;;;9.10;;
74995;SDS011;63545;51.690;5.202;2023-04-15T03:35:31;14.23;;;8.70;;
74995;SDS011;63545;51.690;5.202;2023-04-15T03:37:56;15.93;;;9.07;;
74995;SDS011;63545;51.690;5.202;2023-04-15T03:40:22;16.77;;;9.27;;
74995;SDS011;63545;51.690;5.202;2023-04-15T03:42:47;16.40;;;9.07;;
74995;SDS011;63545;51.690;5.202;2023-04-15T03:45:13;18.95;;;9.07;;
74995;SDS011;63545;51.690;5.202;2023-04-15T03:47:38;15.17;;;7.97;;
74995;SDS011;63545;51.690;5.202;2023-04-15T03:50:04;14.97;;;8.67;;
74995;SDS011;63545;51.690;5.202;2023-04-15T03:52:29;21.88;;;9.60;;
74995;SDS011;63545;51.690;5.202;2023-04-15T03:54:55;15.07;;;8.43;;
74995;SDS011;63545;51.690;5.202;2023-04-15T03:57:20;15.30;;;8.40;;
74995;SDS011;63545;51.690;5.202;2023-04-15T03:59:46;13.80;;;8.90;;
74995;SDS011;63545;51.690;5.202;2023-04-15T04:02:11;16.83;;;9.60;;
74995;SDS011;63545;51.690;5.202;2023-04-15T04:04:36;22.63;;;9.20;;
74995;SDS011;63545;51.690;5.202;2023-04-15T04:07:02;14.87;;;9.40;;
74995;SDS011;63545;51.690;5.202;2023-04-15T04:09:27;12.37;;;9.23;;
74995;SDS011;63545;51.690;5.202;2023-04-15T04:11:53;14.82;;;9.00;;
74995;SDS011;63545;51.690;5.202;2023-04-15T04:14:18;15.17;;;8.40;;
74995;SDS011;63545;51.690;5.202;2023-04-15T04:16:43;13.63;;;9.20;;
74995;SDS011;63545;51.690;5.202;2023-04-15T04:19:09;13.20;;;8.57;;
74995;SDS011;63545;51.690;5.202;2023-04-15T04:21:35;13.77;;;9.80;;
74995;SDS011;63545;51.690;5.202;2023-04-15T04:24:00;16.50;;;9.23;;
74995;SDS011;63545;51.690;5.202;2023-04-15T04:26:26;14.77;;;9.63;;
74995;SDS011;63545;51.690;5.202;2023-04-15T04:28:51;14.32;;;9.73;;
74995;SDS011;63545;51.690;5.202;2023-04-15T04:31:17;15.53;;;9.03;;
74995;SDS011;63545;51.690;5.202;2023-04-15T04:33:42;15.93;;;9.33;;
74995;SDS011;63545;51.690;5.202;2023-04-15T04:36:08;15.32;;;9.55;;
74995;SDS011;63545;51.690;5.202;2023-04-15T04:38:33;13.10;;;8.97;;
74995;SDS011;63545;51.690;5.202;2023-04-15T04:40:59;16.03;;;9.40;;
74995;SDS011;63545;51.690;5.202;2023-04-15T04:43:24;15.37;;;9.40;;
74995;SDS011;63545;51.690;5.202;2023-04-15T04:45:50;15.90;;;9.45;;
74995;SDS011;63545;51.690;5.202;2023-04-15T04:48:15;18.13;;;9.60;;
74995;SDS011;63545;51.690;5.202;2023-04-15T04:50:41;15.30;;;9.00;;
74995;SDS011;63545;51.690;5.202;2023-04-15T04:53:07;14.60;;;9.20;;
74995;SDS011;63545;51.690;5.202;2023-04-15T04:55:32;16.80;;;9.97;;
74995;SDS011;63545;51.690;5.202;2023-04-15T04:58:00;15.65;;;9.43;;
74995;SDS011;63545;51.690;5.202;2023-04-15T05:00:26;18.90;;;9.47;;
74995;SDS011;63545;51.690;5.202;2023-04-15T05:02:51;15.40;;;8.95;;
74995;SDS011;63545;51.690;5.202;2023-04-15T05:05:17;13.07;;;9.03;;
74995;SDS011;63545;51.690;5.202;2023-04-15T05:07:42;15.77;;;8.63;;
74995;SDS011;63545;51.690;5.202;2023-04-15T05:10:07;15.90;;;9.30;;
74995;SDS011;63545;51.690;5.202;2023-04-15T05:12:33;16.20;;;9.27;;
74995;SDS011;63545;51.690;5.202;2023-04-15T05:14:59;14.50;;;9.70;;
74995;SDS011;63545;51.690;5.202;2023-04-15T05:17:25;13.57;;;9.82;;
74995;SDS011;63545;51.690;5.202;2023-04-15T05:19:50;12.33;;;8.90;;
74995;SDS011;63545;51.690;5.202;2023-04-15T05:22:17;16.10;;;9.77;;
74995;SDS011;63545;51.690;5.202;2023-04-15T05:24:43;16.90;;;8.50;;
74995;SDS011;63545;51.690;5.202;2023-04-15T05:27:08;13.50;;;8.83;;
74995;SDS011;63545;51.690;5.202;2023-04-15T05:29:35;17.38;;;10.10;;
74995;SDS011;63545;51.690;5.202;2023-04-15T05:32:01;11.93;;;8.17;;
74995;SDS011;63545;51.690;5.202;2023-04-15T05:34:26;12.10;;;8.67;;
74995;SDS011;63545;51.690;5.202;2023-04-15T05:36:51;17.00;;;9.30;;
74995;SDS011;63545;51.690;5.202;2023-04-15T05:39:17;12.23;;;8.90;;
74995;SDS011;63545;51.690;5.202;2023-04-15T05:41:42;14.18;;;9.25;;
74995;SDS011;63545;51.690;5.202;2023-04-15T05:44:08;14.77;;;8.83;;
74995;SDS011;63545;51.690;5.202;2023-04-15T05:46:33;15.87;;;8.77;;
74995;SDS011;63545;51.690;5.202;2023-04-15T05:48:58;18.03;;;9.17;;
74995;SDS011;63545;51.690;5.202;2023-04-15T05:51:24;17.27;;;9.52;;
74995;SDS011;63545;51.690;5.202;2023-04-15T05:53:50;11.77;;;8.60;;
74995;SDS011;63545;51.690;5.202;2023-04-15T05:56:15;12.73;;;9.20;;
74995;SDS011;63545;51.690;5.202;2023-04-15T05:58:41;15.75;;;9.27;;
74995;SDS011;63545;51.690;5.202;2023-04-15T06:01:06;14.47;;;9.63;;
74995;SDS011;63545;51.690;5.202;2023-04-15T06:03:31;16.93;;;9.97;;
74995;SDS011;63545;51.690;5.202;2023-04-15T06:05:57;16.93;;;10.17;;
74995;SDS011;63545;51.690;5.202;2023-04-15T06:08:22;16.15;;;9.52;;
74995;SDS011;63545;51.690;5.202;2023-04-15T06:10:48;14.13;;;9.50;;
74995;SDS011;63545;51.690;5.202;2023-04-15T06:13:14;16.33;;;9.50;;
74995;SDS011;63545;51.690;5.202;2023-04-15T06:15:41;16.50;;;9.73;;
74995;SDS011;63545;51.690;5.202;2023-04-15T06:18:06;15.13;;;9.10;;
74995;SDS011;63545;51.690;5.202;2023-04-15T06:20:31;20.07;;;9.10;;
74995;SDS011;63545;51.690;5.202;2023-04-15T06:22:57;13.53;;;8.90;;
74995;SDS011;63545;51.690;5.202;2023-04-15T06:25:22;14.53;;;9.57;;
74995;SDS011;63545;51.690;5.202;2023-04-15T06:27:48;13.60;;;8.53;;
74995;SDS011;63545;51.690;5.202;2023-04-15T06:30:13;14.13;;;9.33;;
74995;SDS011;63545;51.690;5.202;2023-04-15T06:32:38;14.07;;;9.07;;
74995;SDS011;63545;51.690;5.202;2023-04-15T06:35:04;15.57;;;9.67;;
74995;SDS011;63545;51.690;5.202;2023-04-15T06:37:29;15.90;;;9.97;;
74995;SDS011;63545;51.690;5.202;2023-04-15T06:39:55;14.67;;;9.70;;
74995;SDS011;63545;51.690;5.202;2023-04-15T06:42:20;12.93;;;9.40;;
74995;SDS011;63545;51.690;5.202;2023-04-15T06:44:46;14.63;;;9.50;;
74995;SDS011;63545;51.690;5.202;2023-04-15T06:47:12;15.53;;;9.47;;
74995;SDS011;63545;51.690;5.202;2023-04-15T06:49:38;16.58;;;9.68;;
74995;SDS011;63545;51.690;5.202;2023-04-15T06:52:04;13.70;;;9.70;;
74995;SDS011;63545;51.690;5.202;2023-04-15T06:54:30;13.15;;;9.30;;
74995;SDS011;63545;51.690;5.202;2023-04-15T06:56:55;13.60;;;9.47;;
74995;SDS011;63545;51.690;5.202;2023-04-15T06:59:20;14.93;;;9.20;;
74995;SDS011;63545;51.690;5.202;2023-04-15T07:01:46;17.33;;;9.80;;
74995;SDS011;63545;51.690;5.202;2023-04-15T07:04:11;14.43;;;9.23;;
74995;SDS011;63545;51.690;5.202;2023-04-15T07:06:37;14.90;;;9.32;;
74995;SDS011;63545;51.690;5.202;2023-04-15T07:09:02;15.77;;;9.53;;
74995;SDS011;63545;51.690;5.202;2023-04-15T07:11:29;16.15;;;9.75;;
74995;SDS011;63545;51.690;5.202;2023-04-15T07:13:54;14.53;;;9.37;;
74995;SDS011;63545;51.690;5.202;2023-04-15T07:16:19;17.77;;;9.17;;
74995;SDS011;63545;51.690;5.202;2023-04-15T07:18:45;17.20;;;9.15;;
74995;SDS011;63545;51.690;5.202;2023-04-15T07:21:10;14.43;;;9.27;;
74995;SDS011;63545;51.690;5.202;2023-04-15T07:23:36;14.05;;;9.02;;
74995;SDS011;63545;51.690;5.202;2023-04-15T07:26:02;12.27;;;9.10;;
74995;SDS011;63545;51.690;5.202;2023-04-15T07:28:27;13.27;;;8.30;;
74995;SDS011;63545;51.690;5.202;2023-04-15T07:30:52;14.37;;;8.53;;
74995;SDS011;63545;51.690;5.202;2023-04-15T07:33:19;15.50;;;8.88;;
74995;SDS011;63545;51.690;5.202;2023-04-15T07:35:44;13.93;;;9.13;;
74995;SDS011;63545;51.690;5.202;2023-04-15T07:38:10;12.93;;;8.60;;
74995;SDS011;63545;51.690;5.202;2023-04-15T07:40:38;12.95;;;9.20;;
74995;SDS011;63545;51.690;5.202;2023-04-15T07:43:04;13.60;;;9.03;;
74995;SDS011;63545;51.690;5.202;2023-04-15T07:45:30;15.32;;;8.68;;
74995;SDS011;63545;51.690;5.202;2023-04-15T07:47:56;13.82;;;8.80;;
74995;SDS011;63545;51.690;5.202;2023-04-15T07:50:21;13.57;;;8.50;;
74995;SDS011;63545;51.690;5.202;2023-04-15T07:52:48;14.07;;;8.25;;
74995;SDS011;63545;51.690;5.202;2023-04-15T07:55:13;13.30;;;8.80;;
74995;SDS011;63545;51.690;5.202;2023-04-15T07:57:41;15.67;;;9.23;;
74995;SDS011;63545;51.690;5.202;2023-04-15T08:00:07;17.70;;;9.35;;
74995;SDS011;63545;51.690;5.202;2023-04-15T08:02:32;12.70;;;8.80;;
74995;SDS011;63545;51.690;5.202;2023-04-15T08:04:58;13.05;;;9.10;;
74995;SDS011;63545;51.690;5.202;2023-04-15T08:07:26;14.35;;;8.38;;
74995;SDS011;63545;51.690;5.202;2023-04-15T08:09:52;14.60;;;9.10;;
74995;SDS011;63545;51.690;5.202;2023-04-15T08:12:17;13.33;;;9.10;;
74995;SDS011;63545;51.690;5.202;2023-04-15T08:14:42;12.53;;;8.60;;
74995;SDS011;63545;51.690;5.202;2023-04-15T08:17:08;14.18;;;9.05;;
74995;SDS011;63545;51.690;5.202;2023-04-15T08:19:33;15.37;;;8.83;;
74995;SDS011;63545;51.690;5.202;2023-04-15T08:21:59;13.37;;;9.23;;
74995;SDS011;63545;51.690;5.202;2023-04-15T08:24:25;14.63;;;9.52;;
74995;SDS011;63545;51.690;5.202;2023-04-15T08:26:51;15.10;;;9.35;;
74995;SDS011;63545;51.690;5.202;2023-04-15T08:29:17;12.03;;;8.20;;
74995;SDS011;63545;51.690;5.202;2023-04-15T08:31:42;12.17;;;8.33;;
74995;SDS011;63545;51.690;5.202;2023-04-15T08:34:07;10.37;;;7.73;;
74995;SDS011;63545;51.690;5.202;2023-04-15T08:36:33;11.73;;;7.32;;
74995;SDS011;63545;51.690;5.202;2023-04-15T08:38:58;10.87;;;6.87;;
74995;SDS011;63545;51.690;5.202;2023-04-15T08:41:26;9.55;;;6.97;;
74995;SDS011;63545;51.690;5.202;2023-04-15T08:44:00;11.75;;;6.72;;
74995;SDS011;63545;51.690;5.202;2023-04-15T08:46:28;10.60;;;6.60;;
74995;SDS011;63545;51.690;5.202;2023-04-15T08:48:56;11.37;;;7.03;;
74995;SDS011;63545;51.690;5.202;2023-04-15T08:51:21;9.68;;;6.93;;
74995;SDS011;63545;51.690;5.202;2023-04-15T08:53:47;12.10;;;7.38;;
74995;SDS011;63545;51.690;5.202;2023-04-15T08:56:14;10.82;;;7.28;;
74995;SDS011;63545;51.690;5.202;2023-04-15T08:58:41;10.77;;;6.60;;
74995;SDS011;63545;51.690;5.202;2023-04-15T09:01:09;10.60;;;5.83;;
74995;SDS011;63545;51.690;5.202;2023-04-15T09:03:36;10.55;;;6.15;;
74995;SDS011;63545;51.690;5.202;2023-04-15T09:06:03;8.80;;;5.68;;
74995;SDS011;63545;51.690;5.202;2023-04-15T09:08:29;10.30;;;5.25;;
74995;SDS011;63545;51.690;5.202;2023-04-15T09:10:55;8.13;;;4.50;;
74995;SDS011;63545;51.690;5.202;2023-04-15T09:13:20;9.00;;;4.60;;
74995;SDS011;63545;51.690;5.202;2023-04-15T09:15:46;7.83;;;4.70;;
74995;SDS011;63545;51.690;5.202;2023-04-15T09:18:11;8.55;;;4.70;;
74995;SDS011;63545;51.690;5.202;2023-04-15T09:20:40;7.13;;;4.23;;
74995;SDS011;63545;51.690;5.202;2023-04-15T09:23:13;8.38;;;4.60;;
74995;SDS011;63545;51.690;5.202;2023-04-15T09:25:39;7.22;;;4.45;;
74995;SDS011;63545;51.690;5.202;2023-04-15T09:28:08;5.53;;;3.75;;
74995;SDS011;63545;51.690;5.202;2023-04-15T09:30:33;8.83;;;4.00;;
74995;SDS011;63545;51.690;5.202;2023-04-15T09:33:00;7.85;;;3.80;;
74995;SDS011;63545;51.690;5.202;2023-04-15T09:35:26;5.30;;;3.50;;
74995;SDS011;63545;51.690;5.202;2023-04-15T09:37:52;5.05;;;3.40;;
74995;SDS011;63545;51.690;5.202;2023-04-15T09:41:00;7.00;;;4.53;;
74995;SDS011;63545;51.690;5.202;2023-04-15T09:43:07;8.20;;;4.60;;
74995;SDS011;63545;51.690;5.202;2023-04-15T09:45:34;5.88;;;4.05;;
74995;SDS011;63545;51.690;5.202;2023-04-15T09:48:14;6.90;;;4.05;;
74995;SDS011;63545;51.690;5.202;2023-04-15T09:50:47;7.68;;;4.22;;
74995;SDS011;63545;51.690;5.202;2023-04-15T09:53:19;8.25;;;4.13;;
74995;SDS011;63545;51.690;5.202;2023-04-15T09:55:53;7.13;;;3.60;;
74995;SDS011;63545;51.690;5.202;2023-04-15T09:58:26;5.20;;;4.00;;
74995;SDS011;63545;51.690;5.202;2023-04-15T10:00:53;5.30;;;3.97;;
74995;SDS011;63545;51.690;5.202;2023-04-15T10:03:24;8.38;;;4.30;;
74995;SDS011;63545;51.690;5.202;2023-04-15T10:05:52;8.23;;;4.07;;
74995;SDS011;63545;51.690;5.202;2023-04-15T10:08:19;9.33;;;4.03;;
74995;SDS011;63545;51.690;5.202;2023-04-15T10:10:45;9.97;;;4.77;;
74995;SDS011;63545;51.690;5.202;2023-04-15T10:13:13;5.30;;;3.30;;
74995;SDS011;63545;51.690;5.202;2023-04-15T10:15:39;5.30;;;3.28;;
74995;SDS011;63545;51.690;5.202;2023-04-15T10:18:07;5.15;;;3.10;;
74995;SDS011;63545;51.690;5.202;2023-04-15T10:20:33;6.60;;;2.95;;
74995;SDS011;63545;51.690;5.202;2023-04-15T10:22:59;8.33;;;3.80;;
74995;SDS011;63545;51.690;5.202;2023-04-15T10:25:25;6.15;;;3.47;;
74995;SDS011;63545;51.690;5.202;2023-04-15T10:27:51;5.13;;;3.50;;
74995;SDS011;63545;51.690;5.202;2023-04-15T10:30:16;5.70;;;3.80;;
74995;SDS011;63545;51.690;5.202;2023-04-15T10:32:42;8.15;;;3.10;;
74995;SDS011;63545;51.690;5.202;2023-04-15T10:35:08;3.90;;;2.73;;
74995;SDS011;63545;51.690;5.202;2023-04-15T10:37:35;4.18;;;2.50;;
74995;SDS011;63545;51.690;5.202;2023-04-15T10:43:00;5.43;;;3.05;;
74995;SDS011;63545;51.690;5.202;2023-04-15T10:45:35;5.50;;;3.05;;
74995;SDS011;63545;51.690;5.202;2023-04-15T10:48:02;7.07;;;3.40;;
74995;SDS011;63545;51.690;5.202;2023-04-15T10:50:29;5.28;;;3.38;;
74995;SDS011;63545;51.690;5.202;2023-04-15T10:52:56;7.05;;;2.85;;
74995;SDS011;63545;51.690;5.202;2023-04-15T10:55:22;4.90;;;3.08;;
74995;SDS011;63545;51.690;5.202;2023-04-15T10:57:52;6.27;;;3.00;;
74995;SDS011;63545;51.690;5.202;2023-04-15T11:00:18;4.53;;;3.22;;
74995;SDS011;63545;51.690;5.202;2023-04-15T11:08:03;5.07;;;2.80;;
74995;SDS011;63545;51.690;5.202;2023-04-15T11:18:14;4.88;;;3.10;;
74995;SDS011;63545;51.690;5.202;2023-04-15T11:20:41;3.90;;;2.78;;
74995;SDS011;63545;51.690;5.202;2023-04-15T11:23:09;4.22;;;2.70;;
74995;SDS011;63545;51.690;5.202;2023-04-15T11:25:35;3.93;;;2.50;;
74995;SDS011;63545;51.690;5.202;2023-04-15T11:28:03;5.50;;;3.38;;
74995;SDS011;63545;51.690;5.202;2023-04-15T11:30:32;5.30;;;2.78;;
74995;SDS011;63545;51.690;5.202;2023-04-15T11:32:59;3.50;;;2.80;;
74995;SDS011;63545;51.690;5.202;2023-04-15T11:35:26;2.60;;;2.23;;
74995;SDS011;63545;51.690;5.202;2023-04-15T11:37:52;4.90;;;2.70;;
74995;SDS011;63545;51.690;5.202;2023-04-15T11:40:22;5.20;;;3.13;;
74995;SDS011;63545;51.690;5.202;2023-04-15T11:45:37;4.43;;;3.10;;
74995;SDS011;63545;51.690;5.202;2023-04-15T11:48:12;6.17;;;3.33;;
74995;SDS011;63545;51.690;5.202;2023-04-15T11:50:38;4.75;;;3.00;;
74995;SDS011;63545;51.690;5.202;2023-04-15T11:53:08;7.38;;;2.60;;
74995;SDS011;63545;51.690;5.202;2023-04-15T11:55:49;4.40;;;2.83;;
74995;SDS011;63545;51.690;5.202;2023-04-15T11:58:20;4.65;;;3.00;;
74995;SDS011;63545;51.690;5.202;2023-04-15T12:00:48;6.15;;;3.17;;
74995;SDS011;63545;51.690;5.202;2023-04-15T12:03:24;3.83;;;2.80;;
74995;SDS011;63545;51.690;5.202;2023-04-15T12:08:55;3.60;;;2.50;;
74995;SDS011;63545;51.690;5.202;2023-04-15T12:16:48;5.30;;;2.78;;
74995;SDS011;63545;51.690;5.202;2023-04-15T12:19:17;4.13;;;2.80;;
74995;SDS011;63545;51.690;5.202;2023-04-15T12:21:47;5.80;;;3.50;;
74995;SDS011;63545;51.690;5.202;2023-04-15T12:24:14;5.22;;;2.97;;
74995;SDS011;63545;51.690;5.202;2023-04-15T12:29:12;5.75;;;3.10;;
74995;SDS011;63545;51.690;5.202;2023-04-15T12:31:55;4.63;;;2.90;;
74995;SDS011;63545;51.690;5.202;2023-04-15T12:34:24;4.97;;;2.92;;
74995;SDS011;63545;51.690;5.202;2023-04-15T12:36:52;4.10;;;3.00;;
74995;SDS011;63545;51.690;5.202;2023-04-15T12:39:20;3.60;;;2.63;;
74995;SDS011;63545;51.690;5.202;2023-04-15T12:41:46;4.10;;;2.30;;
74995;SDS011;63545;51.690;5.202;2023-04-15T12:44:11;4.13;;;2.20;;
74995;SDS011;63545;51.690;5.202;2023-04-15T12:46:37;3.30;;;2.00;;
74995;SDS011;63545;51.690;5.202;2023-04-15T12:49:02;3.13;;;1.60;;
74995;SDS011;63545;51.690;5.202;2023-04-15T12:51:28;3.87;;;2.00;;
74995;SDS011;63545;51.690;5.202;2023-04-15T12:53:53;3.15;;;1.90;;
74995;SDS011;63545;51.690;5.202;2023-04-15T12:56:19;3.57;;;1.67;;
74995;SDS011;63545;51.690;5.202;2023-04-15T12:58:44;6.20;;;1.80;;
74995;SDS011;63545;51.690;5.202;2023-04-15T13:01:10;3.53;;;1.50;;
74995;SDS011;63545;51.690;5.202;2023-04-15T13:03:35;5.85;;;1.60;;
74995;SDS011;63545;51.690;5.202;2023-04-15T13:06:00;3.60;;;1.63;;
74995;SDS011;63545;51.690;5.202;2023-04-15T13:08:28;3.20;;;1.70;;
74995;SDS011;63545;51.690;5.202;2023-04-15T13:10:54;3.72;;;1.85;;
74995;SDS011;63545;51.690;5.202;2023-04-15T13:13:19;2.60;;;1.70;;
74995;SDS011;63545;51.690;5.202;2023-04-15T13:15:45;4.28;;;1.80;;
74995;SDS011;63545;51.690;5.202;2023-04-15T13:18:11;2.90;;;1.63;;
74995;SDS011;63545;51.690;5.202;2023-04-15T13:20:36;3.83;;;1.90;;
74995;SDS011;63545;51.690;5.202;2023-04-15T13:23:01;4.97;;;1.90;;
74995;SDS011;63545;51.690;5.202;2023-04-15T13:25:27;2.50;;;1.60;;
74995;SDS011;63545;51.690;5.202;2023-04-15T13:27:52;2.40;;;1.50;;
74995;SDS011;63545;51.690;5.202;2023-04-15T13:30:17;4.27;;;1.80;;
74995;SDS011;63545;51.690;5.202;2023-04-15T13:32:43;5.17;;;2.00;;
74995;SDS011;63545;51.690;5.202;2023-04-15T13:35:08;3.47;;;2.00;;
74995;SDS011;63545;51.690;5.202;2023-04-15T13:37:33;3.03;;;1.80;;
74995;SDS011;63545;51.690;5.202;2023-04-15T13:39:59;4.30;;;1.77;;
74995;SDS011;63545;51.690;5.202;2023-04-15T13:42:24;3.92;;;2.03;;
74995;SDS011;63545;51.690;5.202;2023-04-15T13:44:51;4.72;;;1.92;;
74995;SDS011;63545;51.690;5.202;2023-04-15T13:47:17;3.63;;;1.80;;
74995;SDS011;63545;51.690;5.202;2023-04-15T13:49:43;3.78;;;2.00;;
74995;SDS011;63545;51.690;5.202;2023-04-15T13:52:09;3.60;;;1.87;;
74995;SDS011;63545;51.690;5.202;2023-04-15T13:54:34;3.13;;;1.40;;
74995;SDS011;63545;51.690;5.202;2023-04-15T13:57:00;4.73;;;1.87;;
74995;SDS011;63545;51.690;5.202;2023-04-15T13:59:26;4.37;;;1.77;;
74995;SDS011;63545;51.690;5.202;2023-04-15T14:01:51;3.42;;;1.45;;
74995;SDS011;63545;51.690;5.202;2023-04-15T14:04:17;4.67;;;1.90;;
74995;SDS011;63545;51.690;5.202;2023-04-15T14:06:42;4.17;;;1.90;;
74995;SDS011;63545;51.690;5.202;2023-04-15T14:09:07;4.67;;;1.90;;
74995;SDS011;63545;51.690;5.202;2023-04-15T14:11:33;3.63;;;1.90;;
74995;SDS011;63545;51.690;5.202;2023-04-15T14:14:00;5.43;;;2.00;;
74995;SDS011;63545;51.690;5.202;2023-04-15T14:16:26;4.47;;;2.00;;
74995;SDS011;63545;51.690;5.202;2023-04-15T14:18:51;3.70;;;1.90;;
74995;SDS011;63545;51.690;5.202;2023-04-15T14:21:17;4.15;;;1.90;;
74995;SDS011;63545;51.690;5.202;2023-04-15T14:23:42;5.27;;;2.20;;
74995;SDS011;63545;51.690;5.202;2023-04-15T14:26:08;4.38;;;2.20;;
74995;SDS011;63545;51.690;5.202;2023-04-15T14:28:33;3.17;;;1.87;;
74995;SDS011;63545;51.690;5.202;2023-04-15T14:30:58;4.90;;;1.77;;
74995;SDS011;63545;51.690;5.202;2023-04-15T14:33:24;3.70;;;1.70;;
74995;SDS011;63545;51.690;5.202;2023-04-15T14:35:50;2.30;;;1.47;;
74995;SDS011;63545;51.690;5.202;2023-04-15T14:38:15;3.30;;;1.70;;
74995;SDS011;63545;51.690;5.202;2023-04-15T14:40:40;6.50;;;1.90;;
74995;SDS011;63545;51.690;5.202;2023-04-15T14:43:06;3.73;;;1.90;;
74995;SDS011;63545;51.690;5.202;2023-04-15T14:45:31;2.97;;;2.00;;
74995;SDS011;63545;51.690;5.202;2023-04-15T14:47:57;2.80;;;1.85;;
74995;SDS011;63545;51.690;5.202;2023-04-15T14:50:23;4.70;;;2.00;;
74995;SDS011;63545;51.690;5.202;2023-04-15T14:52:48;3.03;;;1.90;;
74995;SDS011;63545;51.690;5.202;2023-04-15T14:55:14;4.90;;;2.10;;
74995;SDS011;63545;51.690;5.202;2023-04-15T14:57:40;3.43;;;1.60;;
74995;SDS011;63545;51.690;5.202;2023-04-15T15:00:06;3.97;;;1.80;;
74995;SDS011;63545;51.690;5.202;2023-04-15T15:02:32;5.77;;;1.70;;
74995;SDS011;63545;51.690;5.202;2023-04-15T15:04:59;3.70;;;1.60;;